sensor_id;sensor_type;location;lat;lon;timestamp;temperature;humidity
10468;DHT22;5281;48.878;9.394;2022-09-09T00:01:46;16.00;99.90
10468;DHT22;5281;48.878;9.394;2022-09-09T00:04:19;15.90;99.90
10468;DHT22;5281;48.878;9.394;2022-09-09T00:06:58;15.90;99.90
10468;DHT22;5281;48.878;9.394;2022-09-09T00:09:29;15.90;99.90
10468;DHT22;5281;48.878;9.394;2022-09-09T00:12:02;15.90;99.90
10468;DHT22;5281;48.878;9.394;2022-09-09T00:14:37;15.90;99.90
10468;DHT22;5281;48.878;9.394;2022-09-09T00:17:11;16.10;99.90
10468;DHT22;5281;48.878;9.394;2022-09-09T00:19:44;16.20;99.90
10468;DHT22;5281;48.878;9.394;2022-09-09T00:22:17;16.20;99.90
10468;DHT22;5281;48.878;9.394;2022-09-09T00:24:45;16.20;99.90
10468;DHT22;5281;48.878;9.394;2022-09-09T00:27:19;16.20;99.90
10468;DHT22;5281;48.878;9.394;2022-09-09T00:29:54;16.20;99.90
10468;DHT22;5281;48.878;9.394;2022-09-09T00:32:28;16.20;99.90
10468;DHT22;5281;48.878;9.394;2022-09-09T00:35:00;16.20;99.90
10468;DHT22;5281;48.878;9.394;2022-09-09T00:37:29;16.20;99.90
10468;DHT22;5281;48.878;9.394;2022-09-09T00:39:59;16.30;99.90
10468;DHT22;5281;48.878;9.394;2022-09-09T00:42:35;16.20;99.90
10468;DHT22;5281;48.878;9.394;2022-09-09T00:45:18;16.20;99.90
10468;DHT22;5281;48.878;9.394;2022-09-09T00:47:46;16.10;99.90
10468;DHT22;5281;48.878;9.394;2022-09-09T00:50:42;16.10;99.90
10468;DHT22;5281;48.878;9.394;2022-09-09T00:53:24;16.10;99.90
10468;DHT22;5281;48.878;9.394;2022-09-09T00:56:00;16.20;99.90
10468;DHT22;5281;48.878;9.394;2022-09-09T00:58:30;16.20;99.90
10468;DHT22;5281;48.878;9.394;2022-09-09T01:01:01;16.20;99.90
10468;DHT22;5281;48.878;9.394;2022-09-09T01:03:34;16.30;99.90
10468;DHT22;5281;48.878;9.394;2022-09-09T01:06:13;16.30;99.90
10468;DHT22;5281;48.878;9.394;2022-09-09T01:08:59;16.40;99.90
10468;DHT22;5281;48.878;9.394;2022-09-09T01:11:33;16.50;99.90
10468;DHT22;5281;48.878;9.394;2022-09-09T01:14:11;16.60;99.90
10468;DHT22;5281;48.878;9.394;2022-09-09T01:16:40;16.70;99.90
10468;DHT22;5281;48.878;9.394;2022-09-09T01:19:17;16.80;99.90
10468;DHT22;5281;48.878;9.394;2022-09-09T01:21:52;16.90;99.90
10468;DHT22;5281;48.878;9.394;2022-09-09T01:24:27;16.90;99.90
10468;DHT22;5281;48.878;9.394;2022-09-09T01:27:01;17.00;99.90
10468;DHT22;5281;48.878;9.394;2022-09-09T01:29:29;17.20;99.90
10468;DHT22;5281;48.878;9.394;2022-09-09T01:31:57;17.20;99.90
10468;DHT22;5281;48.878;9.394;2022-09-09T01:34:25;17.30;99.90
10468;DHT22;5281;48.878;9.394;2022-09-09T01:36:57;17.30;99.90
10468;DHT22;5281;48.878;9.394;2022-09-09T01:39:24;17.30;99.90
10468;DHT22;5281;48.878;9.394;2022-09-09T01:41:52;17.30;99.90
10468;DHT22;5281;48.878;9.394;2022-09-09T01:44:20;17.40;99.90
10468;DHT22;5281;48.878;9.394;2022-09-09T01:46:48;17.40;99.90
10468;DHT22;5281;48.878;9.394;2022-09-09T01:49:16;17.50;99.90
10468;DHT22;5281;48.878;9.394;2022-09-09T01:51:43;17.60;99.90
10468;DHT22;5281;48.878;9.394;2022-09-09T01:54:13;17.70;99.90
10468;DHT22;5281;48.878;9.394;2022-09-09T01:56:47;17.80;99.90
10468;DHT22;5281;48.878;9.394;2022-09-09T01:59:40;17.80;99.90
10468;DHT22;5281;48.878;9.394;2022-09-09T02:02:11;17.90;99.90
10468;DHT22;5281;48.878;9.394;2022-09-09T02:04:41;18.10;99.90
10468;DHT22;5281;48.878;9.394;2022-09-09T02:07:26;18.10;99.90
10468;DHT22;5281;48.878;9.394;2022-09-09T02:09:58;18.20;99.90
10468;DHT22;5281;48.878;9.394;2022-09-09T02:12:28;18.20;99.90
10468;DHT22;5281;48.878;9.394;2022-09-09T02:15:02;18.30;99.90
10468;DHT22;5281;48.878;9.394;2022-09-09T02:17:33;18.30;99.90
10468;DHT22;5281;48.878;9.394;2022-09-09T02:20:06;18.30;99.90
10468;DHT22;5281;48.878;9.394;2022-09-09T02:22:35;18.30;99.90
10468;DHT22;5281;48.878;9.394;2022-09-09T02:25:07;18.30;99.90
10468;DHT22;5281;48.878;9.394;2022-09-09T02:27:34;18.20;99.90
10468;DHT22;5281;48.878;9.394;2022-09-09T02:30:04;18.10;99.90
10468;DHT22;5281;48.878;9.394;2022-09-09T02:32:32;18.00;99.90
10468;DHT22;5281;48.878;9.394;2022-09-09T02:35:05;17.90;99.90
10468;DHT22;5281;48.878;9.394;2022-09-09T02:37:36;17.90;99.90
10468;DHT22;5281;48.878;9.394;2022-09-09T02:40:04;17.80;99.90
10468;DHT22;5281;48.878;9.394;2022-09-09T02:42:31;17.70;99.90
10468;DHT22;5281;48.878;9.394;2022-09-09T02:44:58;17.60;99.90
10468;DHT22;5281;48.878;9.394;2022-09-09T02:47:30;17.60;99.90
10468;DHT22;5281;48.878;9.394;2022-09-09T02:50:09;17.40;99.90
10468;DHT22;5281;48.878;9.394;2022-09-09T02:52:45;17.40;99.90
10468;DHT22;5281;48.878;9.394;2022-09-09T02:55:18;17.40;99.90
10468;DHT22;5281;48.878;9.394;2022-09-09T02:57:48;17.40;99.90
10468;DHT22;5281;48.878;9.394;2022-09-09T03:00:16;17.40;99.90
10468;DHT22;5281;48.878;9.394;2022-09-09T03:02:51;17.50;99.90
10468;DHT22;5281;48.878;9.394;2022-09-09T03:05:18;17.40;99.90
10468;DHT22;5281;48.878;9.394;2022-09-09T03:07:45;17.40;99.90
10468;DHT22;5281;48.878;9.394;2022-09-09T03:10:12;17.40;99.90
10468;DHT22;5281;48.878;9.394;2022-09-09T03:12:39;17.40;99.90
10468;DHT22;5281;48.878;9.394;2022-09-09T03:15:07;17.40;99.90
10468;DHT22;5281;48.878;9.394;2022-09-09T03:17:34;17.30;99.90
10468;DHT22;5281;48.878;9.394;2022-09-09T03:20:03;17.30;99.90
10468;DHT22;5281;48.878;9.394;2022-09-09T03:22:30;17.30;99.90
10468;DHT22;5281;48.878;9.394;2022-09-09T03:24:56;17.20;99.90
10468;DHT22;5281;48.878;9.394;2022-09-09T03:27:23;17.20;99.90
10468;DHT22;5281;48.878;9.394;2022-09-09T03:29:50;17.10;99.90
10468;DHT22;5281;48.878;9.394;2022-09-09T03:32:17;17.00;99.90
10468;DHT22;5281;48.878;9.394;2022-09-09T03:34:44;17.00;99.90
10468;DHT22;5281;48.878;9.394;2022-09-09T03:37:14;16.90;99.90
10468;DHT22;5281;48.878;9.394;2022-09-09T03:39:40;16.80;99.90
10468;DHT22;5281;48.878;9.394;2022-09-09T03:42:08;16.80;99.90
10468;DHT22;5281;48.878;9.394;2022-09-09T03:44:34;16.80;99.90
10468;DHT22;5281;48.878;9.394;2022-09-09T03:47:01;16.80;99.90
10468;DHT22;5281;48.878;9.394;2022-09-09T03:49:28;16.80;99.90
10468;DHT22;5281;48.878;9.394;2022-09-09T03:51:55;16.70;99.90
10468;DHT22;5281;48.878;9.394;2022-09-09T03:54:24;16.80;99.90
10468;DHT22;5281;48.878;9.394;2022-09-09T03:56:51;16.80;99.90
10468;DHT22;5281;48.878;9.394;2022-09-09T03:59:18;16.80;99.90
10468;DHT22;5281;48.878;9.394;2022-09-09T04:01:46;16.80;99.90
10468;DHT22;5281;48.878;9.394;2022-09-09T04:04:12;16.90;99.90
10468;DHT22;5281;48.878;9.394;2022-09-09T04:06:39;16.90;99.90
10468;DHT22;5281;48.878;9.394;2022-09-09T04:09:06;17.00;99.90
10468;DHT22;5281;48.878;9.394;2022-09-09T04:11:34;17.00;99.90
10468;DHT22;5281;48.878;9.394;2022-09-09T04:14:02;17.00;99.90
10468;DHT22;5281;48.878;9.394;2022-09-09T04:16:29;17.00;99.90
10468;DHT22;5281;48.878;9.394;2022-09-09T04:18:56;17.00;99.90
10468;DHT22;5281;48.878;9.394;2022-09-09T04:21:23;16.90;99.90
10468;DHT22;5281;48.878;9.394;2022-09-09T04:23:50;17.00;99.90
10468;DHT22;5281;48.878;9.394;2022-09-09T04:26:17;17.00;99.90
10468;DHT22;5281;48.878;9.394;2022-09-09T04:28:46;17.00;99.90
10468;DHT22;5281;48.878;9.394;2022-09-09T04:31:16;17.10;99.90
10468;DHT22;5281;48.878;9.394;2022-09-09T04:33:43;17.20;99.90
10468;DHT22;5281;48.878;9.394;2022-09-09T04:36:11;17.30;99.90
10468;DHT22;5281;48.878;9.394;2022-09-09T04:38:38;17.30;99.90
10468;DHT22;5281;48.878;9.394;2022-09-09T04:41:05;17.30;99.90
10468;DHT22;5281;48.878;9.394;2022-09-09T04:43:32;17.40;99.90
10468;DHT22;5281;48.878;9.394;2022-09-09T04:46:01;17.40;99.90
10468;DHT22;5281;48.878;9.394;2022-09-09T04:48:27;17.50;99.90
10468;DHT22;5281;48.878;9.394;2022-09-09T04:50:55;17.50;99.90
10468;DHT22;5281;48.878;9.394;2022-09-09T04:53:22;17.60;99.90
10468;DHT22;5281;48.878;9.394;2022-09-09T04:55:50;17.50;99.90
10468;DHT22;5281;48.878;9.394;2022-09-09T04:58:18;17.70;99.90
10468;DHT22;5281;48.878;9.394;2022-09-09T05:00:47;17.70;99.90
10468;DHT22;5281;48.878;9.394;2022-09-09T05:03:15;17.80;99.90
10468;DHT22;5281;48.878;9.394;2022-09-09T05:05:42;17.80;99.90
10468;DHT22;5281;48.878;9.394;2022-09-09T05:08:10;17.90;99.90
10468;DHT22;5281;48.878;9.394;2022-09-09T05:10:38;17.90;99.90
10468;DHT22;5281;48.878;9.394;2022-09-09T05:13:07;17.90;99.90
10468;DHT22;5281;48.878;9.394;2022-09-09T05:15:33;17.90;99.90
10468;DHT22;5281;48.878;9.394;2022-09-09T05:18:02;17.80;99.90
10468;DHT22;5281;48.878;9.394;2022-09-09T05:20:30;17.70;99.90
10468;DHT22;5281;48.878;9.394;2022-09-09T05:22:57;17.60;99.90
10468;DHT22;5281;48.878;9.394;2022-09-09T05:25:24;17.60;99.90
10468;DHT22;5281;48.878;9.394;2022-09-09T05:27:51;17.70;99.90
10468;DHT22;5281;48.878;9.394;2022-09-09T05:30:19;17.80;99.90
10468;DHT22;5281;48.878;9.394;2022-09-09T05:32:46;18.00;99.90
10468;DHT22;5281;48.878;9.394;2022-09-09T05:35:14;18.10;99.90
10468;DHT22;5281;48.878;9.394;2022-09-09T05:37:43;18.20;99.90
10468;DHT22;5281;48.878;9.394;2022-09-09T05:40:11;18.30;99.90
10468;DHT22;5281;48.878;9.394;2022-09-09T05:42:38;18.40;99.90
10468;DHT22;5281;48.878;9.394;2022-09-09T05:45:06;18.50;99.90
10468;DHT22;5281;48.878;9.394;2022-09-09T05:47:34;18.60;99.90
10468;DHT22;5281;48.878;9.394;2022-09-09T05:50:00;18.60;99.90
10468;DHT22;5281;48.878;9.394;2022-09-09T05:52:27;18.70;99.90
10468;DHT22;5281;48.878;9.394;2022-09-09T05:54:55;18.80;99.90
10468;DHT22;5281;48.878;9.394;2022-09-09T05:57:22;18.90;99.90
10468;DHT22;5281;48.878;9.394;2022-09-09T05:59:49;19.10;99.90
10468;DHT22;5281;48.878;9.394;2022-09-09T06:02:16;19.20;99.90
10468;DHT22;5281;48.878;9.394;2022-09-09T06:04:42;19.30;99.90
10468;DHT22;5281;48.878;9.394;2022-09-09T06:07:09;19.40;99.90
10468;DHT22;5281;48.878;9.394;2022-09-09T06:09:36;19.40;99.90
10468;DHT22;5281;48.878;9.394;2022-09-09T06:12:04;19.50;99.90
10468;DHT22;5281;48.878;9.394;2022-09-09T06:14:31;19.50;99.90
10468;DHT22;5281;48.878;9.394;2022-09-09T06:16:58;19.50;99.90
10468;DHT22;5281;48.878;9.394;2022-09-09T06:19:25;19.50;99.90
10468;DHT22;5281;48.878;9.394;2022-09-09T06:21:52;19.70;99.90
10468;DHT22;5281;48.878;9.394;2022-09-09T06:24:19;19.90;99.90
10468;DHT22;5281;48.878;9.394;2022-09-09T06:26:45;20.10;99.90
10468;DHT22;5281;48.878;9.394;2022-09-09T06:29:13;20.30;99.90
10468;DHT22;5281;48.878;9.394;2022-09-09T06:31:40;20.40;99.90
10468;DHT22;5281;48.878;9.394;2022-09-09T06:34:08;20.50;99.90
10468;DHT22;5281;48.878;9.394;2022-09-09T06:36:36;20.70;99.90
10468;DHT22;5281;48.878;9.394;2022-09-09T06:39:03;20.80;99.90
10468;DHT22;5281;48.878;9.394;2022-09-09T06:41:31;20.80;99.90
10468;DHT22;5281;48.878;9.394;2022-09-09T06:43:58;20.80;99.90
10468;DHT22;5281;48.878;9.394;2022-09-09T06:46:28;20.90;99.90
10468;DHT22;5281;48.878;9.394;2022-09-09T06:48:57;20.90;99.90
10468;DHT22;5281;48.878;9.394;2022-09-09T06:51:26;21.00;99.90
10468;DHT22;5281;48.878;9.394;2022-09-09T06:53:54;21.00;99.90
10468;DHT22;5281;48.878;9.394;2022-09-09T06:56:22;21.10;99.90
10468;DHT22;5281;48.878;9.394;2022-09-09T06:58:50;21.30;99.90
10468;DHT22;5281;48.878;9.394;2022-09-09T07:01:18;21.50;99.90
10468;DHT22;5281;48.878;9.394;2022-09-09T07:03:48;21.60;99.90
10468;DHT22;5281;48.878;9.394;2022-09-09T07:06:17;21.80;99.90
10468;DHT22;5281;48.878;9.394;2022-09-09T07:08:48;21.70;99.90
10468;DHT22;5281;48.878;9.394;2022-09-09T07:11:15;21.80;99.90
10468;DHT22;5281;48.878;9.394;2022-09-09T07:13:42;21.90;99.90
10468;DHT22;5281;48.878;9.394;2022-09-09T07:16:10;21.90;99.90
10468;DHT22;5281;48.878;9.394;2022-09-09T07:18:38;22.10;99.90
10468;DHT22;5281;48.878;9.394;2022-09-09T07:21:07;22.20;99.90
10468;DHT22;5281;48.878;9.394;2022-09-09T07:23:33;22.30;99.90
10468;DHT22;5281;48.878;9.394;2022-09-09T07:26:01;22.50;99.90
10468;DHT22;5281;48.878;9.394;2022-09-09T07:28:28;22.60;99.90
10468;DHT22;5281;48.878;9.394;2022-09-09T07:30:57;22.90;99.90
10468;DHT22;5281;48.878;9.394;2022-09-09T07:33:25;23.10;99.90
10468;DHT22;5281;48.878;9.394;2022-09-09T07:35:52;23.30;99.90
10468;DHT22;5281;48.878;9.394;2022-09-09T07:38:21;23.50;99.90
10468;DHT22;5281;48.878;9.394;2022-09-09T07:40:48;23.60;99.90
10468;DHT22;5281;48.878;9.394;2022-09-09T07:43:14;23.90;99.90
10468;DHT22;5281;48.878;9.394;2022-09-09T07:45:42;24.30;99.90
10468;DHT22;5281;48.878;9.394;2022-09-09T07:48:09;24.50;99.90
10468;DHT22;5281;48.878;9.394;2022-09-09T07:50:36;24.70;99.90
10468;DHT22;5281;48.878;9.394;2022-09-09T07:53:03;24.70;99.90
10468;DHT22;5281;48.878;9.394;2022-09-09T07:55:32;24.70;99.90
10468;DHT22;5281;48.878;9.394;2022-09-09T07:57:59;24.80;99.90
10468;DHT22;5281;48.878;9.394;2022-09-09T08:00:26;25.00;99.90
10468;DHT22;5281;48.878;9.394;2022-09-09T08:02:53;25.20;99.90
10468;DHT22;5281;48.878;9.394;2022-09-09T08:05:20;25.30;99.90
10468;DHT22;5281;48.878;9.394;2022-09-09T08:07:47;25.40;99.80
10468;DHT22;5281;48.878;9.394;2022-09-09T08:10:14;25.50;99.70
10468;DHT22;5281;48.878;9.394;2022-09-09T08:12:42;25.60;99.10
10468;DHT22;5281;48.878;9.394;2022-09-09T08:15:09;25.80;98.50
10468;DHT22;5281;48.878;9.394;2022-09-09T08:17:36;25.90;98.30
10468;DHT22;5281;48.878;9.394;2022-09-09T08:20:03;25.70;98.20
10468;DHT22;5281;48.878;9.394;2022-09-09T08:22:32;25.40;98.60
10468;DHT22;5281;48.878;9.394;2022-09-09T08:24:59;25.20;99.10
10468;DHT22;5281;48.878;9.394;2022-09-09T08:27:27;25.00;99.30
10468;DHT22;5281;48.878;9.394;2022-09-09T08:29:55;25.10;99.10
10468;DHT22;5281;48.878;9.394;2022-09-09T08:32:22;25.10;98.80
10468;DHT22;5281;48.878;9.394;2022-09-09T08:34:49;25.00;98.90
10468;DHT22;5281;48.878;9.394;2022-09-09T08:37:16;24.60;99.20
10468;DHT22;5281;48.878;9.394;2022-09-09T08:39:43;24.30;99.80
10468;DHT22;5281;48.878;9.394;2022-09-09T08:42:32;24.10;99.90
10468;DHT22;5281;48.878;9.394;2022-09-09T08:45:19;23.90;99.90
10468;DHT22;5281;48.878;9.394;2022-09-09T08:47:59;23.70;99.90
10468;DHT22;5281;48.878;9.394;2022-09-09T08:50:31;23.60;99.90
10468;DHT22;5281;48.878;9.394;2022-09-09T08:53:02;23.60;99.90
10468;DHT22;5281;48.878;9.394;2022-09-09T08:55:39;23.60;99.90
10468;DHT22;5281;48.878;9.394;2022-09-09T08:58:12;23.70;99.90
10468;DHT22;5281;48.878;9.394;2022-09-09T09:00:51;23.80;99.90
10468;DHT22;5281;48.878;9.394;2022-09-09T09:03:27;24.10;99.90
10468;DHT22;5281;48.878;9.394;2022-09-09T09:06:01;24.40;99.90
10468;DHT22;5281;48.878;9.394;2022-09-09T09:08:37;24.70;99.90
10468;DHT22;5281;48.878;9.394;2022-09-09T09:11:06;24.70;99.90
10468;DHT22;5281;48.878;9.394;2022-09-09T09:13:39;24.80;99.90
10468;DHT22;5281;48.878;9.394;2022-09-09T09:16:26;25.00;99.70
10468;DHT22;5281;48.878;9.394;2022-09-09T09:18:54;25.10;99.30
10468;DHT22;5281;48.878;9.394;2022-09-09T09:21:28;25.30;98.90
10468;DHT22;5281;48.878;9.394;2022-09-09T09:23:59;25.30;98.60
10468;DHT22;5281;48.878;9.394;2022-09-09T09:26:31;25.30;98.50
10468;DHT22;5281;48.878;9.394;2022-09-09T09:28:59;25.40;98.40
10468;DHT22;5281;48.878;9.394;2022-09-09T09:31:29;25.50;98.40
10468;DHT22;5281;48.878;9.394;2022-09-09T09:33:57;25.50;98.50
10468;DHT22;5281;48.878;9.394;2022-09-09T09:36:32;25.60;98.10
10468;DHT22;5281;48.878;9.394;2022-09-09T09:39:01;25.60;97.90
10468;DHT22;5281;48.878;9.394;2022-09-09T09:41:30;25.70;97.60
10468;DHT22;5281;48.878;9.394;2022-09-09T09:43:58;25.70;97.30
10468;DHT22;5281;48.878;9.394;2022-09-09T09:46:26;25.70;97.40
10468;DHT22;5281;48.878;9.394;2022-09-09T09:49:02;25.60;97.20
10468;DHT22;5281;48.878;9.394;2022-09-09T09:51:32;25.50;95.80
10468;DHT22;5281;48.878;9.394;2022-09-09T09:54:16;25.20;94.40
10468;DHT22;5281;48.878;9.394;2022-09-09T09:56:45;25.00;94.20
10468;DHT22;5281;48.878;9.394;2022-09-09T09:59:24;24.80;93.90
10468;DHT22;5281;48.878;9.394;2022-09-09T10:02:12;24.90;93.60
10468;DHT22;5281;48.878;9.394;2022-09-09T10:04:41;24.90;93.10
10468;DHT22;5281;48.878;9.394;2022-09-09T10:07:11;24.90;91.90
10468;DHT22;5281;48.878;9.394;2022-09-09T10:09:37;25.00;91.30
10468;DHT22;5281;48.878;9.394;2022-09-09T10:12:13;25.20;89.60
10468;DHT22;5281;48.878;9.394;2022-09-09T10:14:47;25.30;86.60
10468;DHT22;5281;48.878;9.394;2022-09-09T10:17:20;25.20;85.50
10468;DHT22;5281;48.878;9.394;2022-09-09T10:20:04;25.00;86.00
10468;DHT22;5281;48.878;9.394;2022-09-09T10:25:28;24.80;83.30
10468;DHT22;5281;48.878;9.394;2022-09-09T10:28:16;24.60;85.70
10468;DHT22;5281;48.878;9.394;2022-09-09T10:30:55;24.50;87.70
10468;DHT22;5281;48.878;9.394;2022-09-09T10:33:30;24.50;88.00
10468;DHT22;5281;48.878;9.394;2022-09-09T10:36:04;24.50;86.50
10468;DHT22;5281;48.878;9.394;2022-09-09T10:38:38;24.40;86.60
10468;DHT22;5281;48.878;9.394;2022-09-09T10:41:19;24.40;87.20
10468;DHT22;5281;48.878;9.394;2022-09-09T10:44:14;24.40;88.30
10468;DHT22;5281;48.878;9.394;2022-09-09T10:47:11;24.50;90.00
10468;DHT22;5281;48.878;9.394;2022-09-09T10:50:11;24.70;90.40
10468;DHT22;5281;48.878;9.394;2022-09-09T10:52:45;24.90;90.20
10468;DHT22;5281;48.878;9.394;2022-09-09T10:55:18;25.30;89.90
10468;DHT22;5281;48.878;9.394;2022-09-09T10:57:46;25.50;88.50
10468;DHT22;5281;48.878;9.394;2022-09-09T11:00:17;25.70;88.40
10468;DHT22;5281;48.878;9.394;2022-09-09T11:02:48;25.80;88.80
10468;DHT22;5281;48.878;9.394;2022-09-09T11:05:18;25.80;87.50
10468;DHT22;5281;48.878;9.394;2022-09-09T11:07:50;25.90;86.70
10468;DHT22;5281;48.878;9.394;2022-09-09T11:10:24;26.00;86.70
10468;DHT22;5281;48.878;9.394;2022-09-09T11:12:57;26.10;85.70
10468;DHT22;5281;48.878;9.394;2022-09-09T11:15:30;26.20;87.10
10468;DHT22;5281;48.878;9.394;2022-09-09T11:18:01;26.40;87.30
10468;DHT22;5281;48.878;9.394;2022-09-09T11:20:28;26.70;87.10
10468;DHT22;5281;48.878;9.394;2022-09-09T11:22:59;27.00;86.50
10468;DHT22;5281;48.878;9.394;2022-09-09T11:25:32;27.30;85.20
10468;DHT22;5281;48.878;9.394;2022-09-09T11:28:25;27.50;84.50
10468;DHT22;5281;48.878;9.394;2022-09-09T11:31:05;27.50;84.80
10468;DHT22;5281;48.878;9.394;2022-09-09T11:33:52;27.50;84.50
10468;DHT22;5281;48.878;9.394;2022-09-09T11:36:38;27.50;83.00
10468;DHT22;5281;48.878;9.394;2022-09-09T11:39:35;27.80;82.90
10468;DHT22;5281;48.878;9.394;2022-09-09T11:42:12;27.80;83.10
10468;DHT22;5281;48.878;9.394;2022-09-09T11:44:42;27.40;85.70
10468;DHT22;5281;48.878;9.394;2022-09-09T11:47:19;26.60;87.80
10468;DHT22;5281;48.878;9.394;2022-09-09T11:49:47;25.80;92.50
10468;DHT22;5281;48.878;9.394;2022-09-09T11:52:22;25.00;93.70
10468;DHT22;5281;48.878;9.394;2022-09-09T11:54:55;24.50;95.00
10468;DHT22;5281;48.878;9.394;2022-09-09T11:57:27;24.10;96.10
10468;DHT22;5281;48.878;9.394;2022-09-09T11:59:57;23.70;96.20
10468;DHT22;5281;48.878;9.394;2022-09-09T12:02:26;23.40;97.80
10468;DHT22;5281;48.878;9.394;2022-09-09T12:04:58;23.20;99.20
10468;DHT22;5281;48.878;9.394;2022-09-09T12:07:33;23.00;99.50
10468;DHT22;5281;48.878;9.394;2022-09-09T12:10:05;23.00;99.90
10468;DHT22;5281;48.878;9.394;2022-09-09T12:12:45;23.00;99.40
10468;DHT22;5281;48.878;9.394;2022-09-09T12:15:25;23.10;99.00
10468;DHT22;5281;48.878;9.394;2022-09-09T12:17:55;23.20;99.90
10468;DHT22;5281;48.878;9.394;2022-09-09T12:20:26;23.50;99.40
10468;DHT22;5281;48.878;9.394;2022-09-09T12:23:18;23.90;98.10
10468;DHT22;5281;48.878;9.394;2022-09-09T12:25:57;24.40;96.10
10468;DHT22;5281;48.878;9.394;2022-09-09T12:28:33;24.70;95.50
10468;DHT22;5281;48.878;9.394;2022-09-09T12:31:08;24.60;95.40
10468;DHT22;5281;48.878;9.394;2022-09-09T12:33:44;24.50;95.50
10468;DHT22;5281;48.878;9.394;2022-09-09T12:36:15;24.40;94.90
10468;DHT22;5281;48.878;9.394;2022-09-09T12:38:43;24.50;94.40
10468;DHT22;5281;48.878;9.394;2022-09-09T12:41:20;24.40;93.30
10468;DHT22;5281;48.878;9.394;2022-09-09T12:43:48;24.30;93.20
10468;DHT22;5281;48.878;9.394;2022-09-09T12:46:26;24.10;93.60
10468;DHT22;5281;48.878;9.394;2022-09-09T12:48:57;24.10;93.80
10468;DHT22;5281;48.878;9.394;2022-09-09T12:51:27;24.10;93.70
10468;DHT22;5281;48.878;9.394;2022-09-09T12:53:55;24.20;92.60
10468;DHT22;5281;48.878;9.394;2022-09-09T12:56:25;24.40;92.60
10468;DHT22;5281;48.878;9.394;2022-09-09T12:58:54;24.60;91.70
10468;DHT22;5281;48.878;9.394;2022-09-09T13:01:23;24.80;91.00
10468;DHT22;5281;48.878;9.394;2022-09-09T13:03:49;25.00;90.70
10468;DHT22;5281;48.878;9.394;2022-09-09T13:06:21;25.00;90.10
10468;DHT22;5281;48.878;9.394;2022-09-09T13:08:49;25.20;90.00
10468;DHT22;5281;48.878;9.394;2022-09-09T13:11:18;25.30;89.10
10468;DHT22;5281;48.878;9.394;2022-09-09T13:13:52;25.60;88.70
10468;DHT22;5281;48.878;9.394;2022-09-09T13:16:22;25.90;86.70
10468;DHT22;5281;48.878;9.394;2022-09-09T13:18:49;26.00;86.10
10468;DHT22;5281;48.878;9.394;2022-09-09T13:21:16;26.00;86.60
10468;DHT22;5281;48.878;9.394;2022-09-09T13:23:49;26.00;86.90
10468;DHT22;5281;48.878;9.394;2022-09-09T13:26:24;26.10;85.40
10468;DHT22;5281;48.878;9.394;2022-09-09T13:28:53;26.20;84.20
10468;DHT22;5281;48.878;9.394;2022-09-09T13:31:22;26.20;84.10
10468;DHT22;5281;48.878;9.394;2022-09-09T13:33:49;26.20;83.00
10468;DHT22;5281;48.878;9.394;2022-09-09T13:36:15;26.10;82.60
10468;DHT22;5281;48.878;9.394;2022-09-09T13:38:54;26.10;83.10
10468;DHT22;5281;48.878;9.394;2022-09-09T13:41:22;26.10;83.90
10468;DHT22;5281;48.878;9.394;2022-09-09T13:43:52;26.20;84.80
10468;DHT22;5281;48.878;9.394;2022-09-09T13:46:32;26.10;85.00
10468;DHT22;5281;48.878;9.394;2022-09-09T13:49:01;26.00;85.30
10468;DHT22;5281;48.878;9.394;2022-09-09T13:51:33;25.90;85.60
10468;DHT22;5281;48.878;9.394;2022-09-09T13:54:02;25.80;86.40
10468;DHT22;5281;48.878;9.394;2022-09-09T13:56:30;25.80;86.10
10468;DHT22;5281;48.878;9.394;2022-09-09T13:58:58;25.90;86.30
10468;DHT22;5281;48.878;9.394;2022-09-09T14:01:25;26.00;86.10
10468;DHT22;5281;48.878;9.394;2022-09-09T14:03:53;26.10;86.00
10468;DHT22;5281;48.878;9.394;2022-09-09T14:06:19;26.10;85.10
10468;DHT22;5281;48.878;9.394;2022-09-09T14:08:47;26.00;83.30
10468;DHT22;5281;48.878;9.394;2022-09-09T14:11:16;25.80;81.90
10468;DHT22;5281;48.878;9.394;2022-09-09T14:13:43;25.60;81.50
10468;DHT22;5281;48.878;9.394;2022-09-09T14:16:11;25.50;81.90
10468;DHT22;5281;48.878;9.394;2022-09-09T14:18:37;25.50;81.90
10468;DHT22;5281;48.878;9.394;2022-09-09T14:21:04;25.60;82.40
10468;DHT22;5281;48.878;9.394;2022-09-09T14:23:31;25.60;82.50
10468;DHT22;5281;48.878;9.394;2022-09-09T14:25:58;25.70;82.10
10468;DHT22;5281;48.878;9.394;2022-09-09T14:28:24;25.80;81.90
10468;DHT22;5281;48.878;9.394;2022-09-09T14:30:51;25.90;81.90
10468;DHT22;5281;48.878;9.394;2022-09-09T14:33:19;26.00;80.90
10468;DHT22;5281;48.878;9.394;2022-09-09T14:35:46;26.00;80.00
10468;DHT22;5281;48.878;9.394;2022-09-09T14:38:14;26.10;80.20
10468;DHT22;5281;48.878;9.394;2022-09-09T14:40:40;26.10;79.40
10468;DHT22;5281;48.878;9.394;2022-09-09T14:43:10;26.30;78.70
10468;DHT22;5281;48.878;9.394;2022-09-09T14:45:37;26.50;78.90
10468;DHT22;5281;48.878;9.394;2022-09-09T14:48:04;26.80;76.00
10468;DHT22;5281;48.878;9.394;2022-09-09T14:50:33;26.90;76.00
10468;DHT22;5281;48.878;9.394;2022-09-09T14:53:05;26.80;75.20
10468;DHT22;5281;48.878;9.394;2022-09-09T14:55:32;26.70;75.20
10468;DHT22;5281;48.878;9.394;2022-09-09T14:57:59;26.60;75.30
10468;DHT22;5281;48.878;9.394;2022-09-09T15:00:25;26.50;74.20
10468;DHT22;5281;48.878;9.394;2022-09-09T15:02:52;26.50;73.20
10468;DHT22;5281;48.878;9.394;2022-09-09T15:05:19;26.50;73.90
10468;DHT22;5281;48.878;9.394;2022-09-09T15:07:48;26.70;72.80
10468;DHT22;5281;48.878;9.394;2022-09-09T15:10:14;26.70;72.30
10468;DHT22;5281;48.878;9.394;2022-09-09T15:12:42;26.50;72.10
10468;DHT22;5281;48.878;9.394;2022-09-09T15:15:09;26.40;72.20
10468;DHT22;5281;48.878;9.394;2022-09-09T15:17:36;26.20;72.50
10468;DHT22;5281;48.878;9.394;2022-09-09T15:20:03;26.00;73.20
10468;DHT22;5281;48.878;9.394;2022-09-09T15:22:31;25.90;73.10
10468;DHT22;5281;48.878;9.394;2022-09-09T15:24:59;25.80;73.30
10468;DHT22;5281;48.878;9.394;2022-09-09T15:27:25;25.70;73.70
10468;DHT22;5281;48.878;9.394;2022-09-09T15:29:52;25.60;73.60
10468;DHT22;5281;48.878;9.394;2022-09-09T15:32:19;25.60;73.80
10468;DHT22;5281;48.878;9.394;2022-09-09T15:34:45;25.60;73.80
10468;DHT22;5281;48.878;9.394;2022-09-09T15:37:13;25.40;73.80
10468;DHT22;5281;48.878;9.394;2022-09-09T15:39:40;25.40;74.80
10468;DHT22;5281;48.878;9.394;2022-09-09T15:42:08;25.30;75.70
10468;DHT22;5281;48.878;9.394;2022-09-09T15:44:39;25.30;76.10
10468;DHT22;5281;48.878;9.394;2022-09-09T15:47:07;25.20;76.30
10468;DHT22;5281;48.878;9.394;2022-09-09T15:49:35;25.20;76.60
10468;DHT22;5281;48.878;9.394;2022-09-09T15:52:02;25.00;77.10
10468;DHT22;5281;48.878;9.394;2022-09-09T15:54:32;24.90;76.70
10468;DHT22;5281;48.878;9.394;2022-09-09T15:57:01;24.70;77.30
10468;DHT22;5281;48.878;9.394;2022-09-09T15:59:30;24.60;77.80
10468;DHT22;5281;48.878;9.394;2022-09-09T16:01:58;24.60;78.60
10468;DHT22;5281;48.878;9.394;2022-09-09T16:04:25;24.60;79.50
10468;DHT22;5281;48.878;9.394;2022-09-09T16:06:54;24.50;79.20
10468;DHT22;5281;48.878;9.394;2022-09-09T16:09:23;24.40;79.10